Time;durP1;ratioP1;P1;durP2;ratioP2;P2;SDS_P1;SDS_P2;PMS_P1;PMS_P2;Temp;Humidity;BMP_temperature;BMP_pressure;BME280_temperature;BME280_humidity;BME280_pressure;Samples;Min_cycle;Max_cycle;Signal;HPM_P1;HPM_P2
2022/10/22 00:01:29;;;;;;;;;12.00;8.50;;;;;16.15;100.00;99194.50;5053390;28;45445;-86
2022/10/22 00:03:55;;;;;;;;;9.25;7.00;;;;;16.15;100.00;99188.34;5053187;28;45363;-86
2022/10/22 00:06:20;;;;;;;;;7.00;7.00;;;;;16.17;100.00;99210.38;5052638;28;46446;-86
2022/10/22 00:08:46;;;;;;;;;10.75;8.00;;;;;16.18;100.00;99228.91;5052067;28;45579;-86
2022/10/22 00:11:14;;;;;;;;;8.25;5.75;;;;;16.20;100.00;99215.53;5050911;28;45547;-86
2022/10/22 00:13:40;;;;;;;;;8.00;6.00;;;;;16.22;100.00;99218.94;5054847;28;45401;-86
2022/10/22 00:16:06;;;;;;;;;4.20;2.80;;;;;16.20;100.00;99212.88;5052948;28;46405;-86
2022/10/22 00:18:31;;;;;;;;;4.50;3.50;;;;;16.17;100.00;99215.72;5054743;28;45378;-86
2022/10/22 00:20:57;;;;;;;;;4.00;3.25;;;;;16.16;100.00;99214.00;5053219;28;45362;-87
2022/10/22 00:23:22;;;;;;;;;4.50;3.75;;;;;16.16;100.00;99220.16;5052546;28;45392;-86
2022/10/22 00:25:48;;;;;;;;;3.00;3.00;;;;;16.17;100.00;99210.38;5051372;28;45706;-87
2022/10/22 00:28:14;;;;;;;;;4.25;3.75;;;;;16.18;100.00;99222.75;5052565;28;45427;-87
2022/10/22 00:30:39;;;;;;;;;4.25;3.50;;;;;16.17;100.00;99236.97;5052667;28;45444;-87
2022/10/22 00:33:05;;;;;;;;;4.00;2.75;;;;;16.16;100.00;99249.44;5053188;28;45311;-87
2022/10/22 00:35:31;;;;;;;;;4.75;4.75;;;;;16.17;100.00;99232.53;5052558;28;45779;-87
2022/10/22 00:37:56;;;;;;;;;2.80;2.80;;;;;16.17;100.00;99224.53;5052942;28;45490;-87
2022/10/22 00:40:21;;;;;;;;;2.75;2.75;;;;;16.17;100.00;99223.69;5045143;28;45373;-87
2022/10/22 00:42:47;;;;;;;;;2.00;2.00;;;;;16.14;100.00;99224.72;5052496;28;45422;-87
2022/10/22 00:45:22;;;;;;;;;1.50;0.75;;;;;16.12;100.00;99210.66;5051811;28;46331;-88
2022/10/22 00:48:03;;;;;;;;;0.00;0.00;;;;;16.12;100.00;99225.75;5051484;28;45459;-87
2022/10/22 00:50:52;;;;;;;;;0.20;0.20;;;;;16.13;100.00;99214.19;5053450;28;45437;-87
2022/10/22 00:53:25;;;;;;;;;0.80;0.80;;;;;16.14;100.00;99203.44;5054316;28;45513;-88
2022/10/22 00:55:52;;;;;;;;;1.80;1.00;;;;;16.17;100.00;99216.56;5043266;28;47383;-88
2022/10/22 00:58:22;;;;;;;;;0.80;0.80;;;;;16.19;100.00;99224.44;5052883;28;45362;-87
2022/10/22 01:00:47;;;;;;;;;0.80;0.80;;;;;16.20;100.00;99223.50;5053364;28;45229;-88
2022/10/22 01:03:13;;;;;;;;;2.50;2.50;;;;;16.22;100.00;99227.78;5053201;28;45438;-88
2022/10/22 01:05:44;;;;;;;;;3.00;3.00;;;;;16.22;100.00;99225.13;5048728;28;46320;-88
2022/10/22 01:08:20;;;;;;;;;3.00;2.40;;;;;16.24;100.00;99233.00;5049623;28;45503;-87
2022/10/22 01:11:22;;;;;;;;;3.00;1.80;;;;;16.23;100.00;99239.28;5051107;28;45486;-87
2022/10/22 01:14:06;;;;;;;;;1.80;1.80;;;;;16.24;100.00;99241.00;5052453;28;45373;-88
2022/10/22 01:17:05;;;;;;;;;0.80;0.60;;;;;16.25;100.00;99245.38;5051932;28;46613;-88
2022/10/22 01:19:46;;;;;;;;;0.80;0.80;;;;;16.26;100.00;99247.03;5051810;28;45430;-88
2022/10/22 01:22:30;;;;;;;;;1.40;1.40;;;;;16.27;100.00;99254.94;5049287;28;45471;-87
2022/10/22 01:25:11;;;;;;;;;2.60;1.80;;;;;16.26;100.00;99239.94;5052677;28;45449;-87
2022/10/22 01:28:00;;;;;;;;;7.00;4.40;;;;;16.26;100.00;99225.75;5052811;28;45375;-88
2022/10/22 01:30:26;;;;;;;;;3.80;2.80;;;;;16.25;100.00;99221.44;5051741;28;45262;-88
2022/10/22 01:32:55;;;;;;;;;6.00;4.50;;;;;16.23;100.00;99215.34;5052640;28;45687;-88
2022/10/22 01:35:26;;;;;;;;;5.00;4.25;;;;;16.21;100.00;99215.44;5080900;27;45521;-88
2022/10/22 01:37:57;;;;;;;;;2.80;1.60;;;;;16.21;100.00;99211.91;5046686;28;47932;-88
2022/10/22 01:40:25;;;;;;;;;2.00;2.00;;;;;16.21;100.00;99217.22;5051983;28;45400;-88
2022/10/22 01:43:03;;;;;;;;;1.80;1.80;;;;;16.19;100.00;99227.13;5050903;28;45464;-88
2022/10/22 01:45:33;;;;;;;;;1.80;1.80;;;;;16.18;100.00;99220.06;5052511;28;45565;-87
2022/10/22 01:48:12;;;;;;;;;1.00;1.00;;;;;16.16;100.00;99220.16;5051941;28;46281;-88
2022/10/22 01:50:37;;;;;;;;;0.00;0.00;;;;;16.16;100.00;99214.84;5051749;28;45440;-88
2022/10/22 01:53:15;;;;;;;;;2.00;2.00;;;;;16.14;100.00;99216.75;5052317;28;45866;-88
2022/10/22 01:55:46;;;;;;;;;4.80;4.80;;;;;16.14;100.00;99214.09;5058710;28;45206;-88
2022/10/22 01:58:42;;;;;;;;;2.40;2.40;;;;;16.14;100.00;99221.22;5055112;28;46781;-88
2022/10/22 02:01:13;;;;;;;;;0.80;0.80;;;;;16.14;100.00;99207.91;5052625;28;45456;-88
2022/10/22 02:03:54;;;;;;;;;3.80;2.80;;;;;16.11;100.00;99195.66;5054073;28;45267;-88
2022/10/22 02:06:22;;;;;;;;;2.00;2.00;;;;;16.09;100.00;99194.88;5055473;28;45447;-88
2022/10/22 02:08:49;;;;;;;;;1.00;1.00;;;;;16.05;100.00;99194.25;5055716;28;46648;-88
2022/10/22 02:11:15;;;;;;;;;2.80;1.80;;;;;15.99;100.00;99180.44;5055401;28;45396;-88
2022/10/22 02:13:48;;;;;;;;;4.00;2.40;;;;;16.01;100.00;99197.16;5055413;28;45560;-88
2022/10/22 02:16:23;;;;;;;;;3.20;2.40;;;;;15.98;100.00;99195.56;5055327;28;45344;-88
2022/10/22 02:18:53;;;;;;;;;1.80;1.80;;;;;15.98;100.00;99200.88;5051034;28;47197;-88
2022/10/22 02:21:19;;;;;;;;;1.80;1.80;;;;;16.00;100.00;99200.78;5055753;28;45572;-86
2022/10/22 02:23:45;;;;;;;;;3.25;3.25;;;;;15.99;100.00;99194.59;5056412;28;45489;-88
2022/10/22 02:26:20;;;;;;;;;3.00;2.80;;;;;15.99;100.00;99210.56;5057206;28;45531;-89
2022/10/22 02:29:12;;;;;;;;;2.20;2.20;;;;;16.00;100.00;99209.63;5054743;28;46468;-88
2022/10/22 02:31:42;;;;;;;;;2.80;1.40;;;;;15.99;100.00;99215.03;5053696;28;45415;-88
2022/10/22 02:34:13;;;;;;;;;1.60;1.60;;;;;16.00;100.00;99212.28;5053433;28;45215;-89
2022/10/22 02:36:41;;;;;;;;;2.00;1.40;;;;;16.03;100.00;99206.78;5057205;28;45422;-89
2022/10/22 02:39:09;;;;;;;;;2.40;2.40;;;;;16.05;100.00;99204.03;5056952;28;46545;-88
2022/10/22 02:41:36;;;;;;;;;3.20;2.80;;;;;16.05;100.00;99204.88;5054044;28;45404;-89
2022/10/22 02:44:09;;;;;;;;;3.00;3.00;;;;;16.07;100.00;99210.09;5057450;28;45364;-89
2022/10/22 02:46:36;;;;;;;;;0.80;0.80;;;;;16.07;100.00;99218.09;5055031;28;45306;-89
2022/10/22 02:49:02;;;;;;;;;2.00;2.00;;;;;16.08;100.00;99206.50;5057759;28;45358;-89
2022/10/22 02:51:27;;;;;;;;;3.75;3.25;;;;;16.10;100.00;99209.91;5059201;28;45634;-88
2022/10/22 02:53:53;;;;;;;;;4.75;2.75;;;;;16.11;100.00;99208.94;5059905;28;45338;-89
2022/10/22 02:56:18;;;;;;;;;3.25;2.50;;;;;16.12;100.00;99210.66;5057053;28;45307;-89
2022/10/22 02:58:43;;;;;;;;;1.75;1.75;;;;;16.13;100.00;99206.19;5056969;28;45639;-90
2022/10/22 03:01:09;;;;;;;;;2.75;2.75;;;;;16.13;100.00;99190.22;5057093;28;45579;-89
2022/10/22 03:03:34;;;;;;;;;1.00;1.00;;;;;16.14;100.00;99200.78;5056952;28;45233;-89
2022/10/22 03:06:00;;;;;;;;;1.50;1.50;;;;;16.15;100.00;99215.78;5056394;28;45381;-90
2022/10/22 03:08:25;;;;;;;;;1.00;1.00;;;;;16.15;100.00;99223.78;5057014;28;45306;-90
2022/10/22 03:10:50;;;;;;;;;1.75;1.75;;;;;16.16;100.00;99222.84;5058962;28;45226;-89
2022/10/22 03:13:16;;;;;;;;;1.25;1.25;;;;;16.16;100.00;99225.50;5073882;28;45330;-89
2022/10/22 03:15:41;;;;;;;;;3.50;1.75;;;;;16.16;100.00;99225.50;5061788;28;45314;-90
2022/10/22 03:18:07;;;;;;;;;1.75;1.75;;;;;16.17;100.00;99227.19;5056540;28;45312;-90
2022/10/22 03:20:32;;;;;;;;;1.00;1.00;;;;;16.16;100.00;99232.59;5056019;28;45420;-89
2022/10/22 03:22:57;;;;;;;;;1.75;1.50;;;;;16.16;100.00;99237.94;5056333;28;45445;-90
2022/10/22 03:25:26;;;;;;;;;1.75;1.75;;;;;16.14;100.00;99238.03;5055629;28;45411;-90
2022/10/22 03:27:54;;;;;;;;;1.80;1.80;;;;;16.14;100.00;99231.84;5055770;28;46536;-89
2022/10/22 03:30:20;;;;;;;;;1.80;1.80;;;;;16.13;100.00;99238.97;5057396;28;45430;-90
2022/10/22 03:32:46;;;;;;;;;1.25;0.75;;;;;16.13;100.00;99246.94;5046978;28;45357;-90
2022/10/22 03:35:11;;;;;;;;;0.00;0.00;;;;;16.13;100.00;99256.72;5055814;28;45467;-90
2022/10/22 03:37:37;;;;;;;;;1.75;1.75;;;;;16.12;100.00;99247.03;5056291;28;45657;-90
2022/10/22 03:40:06;;;;;;;;;1.00;0.80;;;;;16.12;100.00;99255.88;5056262;28;45356;-90
2022/10/22 03:42:32;;;;;;;;;0.80;0.80;;;;;16.10;100.00;99268.41;5055879;28;45534;-90
2022/10/22 03:44:57;;;;;;;;;2.00;0.75;;;;;16.12;100.00;99269.16;5055438;28;45328;-90
2022/10/22 03:47:23;;;;;;;;;0.75;0.75;;;;;16.11;100.00;99262.13;5055421;28;45415;-89
2022/10/22 03:49:49;;;;;;;;;0.75;0.00;;;;;16.10;100.00;99260.44;5055649;28;45335;-88
2022/10/22 03:52:15;;;;;;;;;0.60;0.60;;;;;16.10;100.00;99263.09;5057472;28;45288;-89
2022/10/22 03:54:41;;;;;;;;;0.75;0.75;;;;;16.10;100.00;99268.41;5055701;28;45408;-90
2022/10/22 03:57:07;;;;;;;;;1.00;0.80;;;;;16.09;100.00;99268.53;5056536;28;45596;-89
2022/10/22 03:59:38;;;;;;;;;0.80;0.80;;;;;16.07;100.00;99276.59;5055608;28;45281;-90
2022/10/22 04:02:04;;;;;;;;;1.80;1.80;;;;;16.07;100.00;99275.75;5055858;28;45434;-89
2022/10/22 04:04:30;;;;;;;;;0.75;0.75;;;;;16.07;100.00;99275.75;5054619;28;45437;-90
2022/10/22 04:06:56;;;;;;;;;0.75;0.75;;;;;16.05;100.00;99276.69;5055028;28;46466;-90
2022/10/22 04:09:21;;;;;;;;;1.50;1.25;;;;;16.05;100.00;99282.00;5055532;28;45428;-90
2022/10/22 04:11:47;;;;;;;;;2.50;1.75;;;;;16.04;100.00;99282.94;5056002;28;45405;-90
2022/10/22 04:14:12;;;;;;;;;3.00;1.00;;;;;16.04;100.00;99282.09;5057279;28;45651;-90
2022/10/22 04:16:39;;;;;;;;;1.75;1.00;;;;;16.02;100.00;99286.63;5055529;28;45512;-89
2022/10/22 04:19:04;;;;;;;;;1.80;1.80;;;;;16.02;100.00;99283.97;5055571;28;45264;-90
2022/10/22 04:21:30;;;;;;;;;2.75;0.75;;;;;16.01;100.00;99276.94;5054542;28;45424;-90
2022/10/22 04:23:55;;;;;;;;;1.75;1.75;;;;;16.00;100.00;99276.09;5054897;28;45511;-90
2022/10/22 04:26:21;;;;;;;;;1.75;1.25;;;;;15.98;100.00;99269.16;5055545;28;45448;-90
2022/10/22 04:28:48;;;;;;;;;2.00;2.00;;;;;15.97;100.00;99273.63;5054926;28;45721;-90
2022/10/22 04:31:16;;;;;;;;;3.00;2.00;;;;;15.97;100.00;99278.06;5055601;28;45408;-90
2022/10/22 04:33:42;;;;;;;;;4.00;2.20;;;;;15.97;100.00;99281.59;5056050;28;45446;-89
2022/10/22 04:36:10;;;;;;;;;2.60;2.00;;;;;15.97;100.00;99281.59;5054801;28;45524;-89
2022/10/22 04:38:37;;;;;;;;;3.00;2.00;;;;;15.97;100.00;99284.25;5048671;28;45478;-89
2022/10/22 04:41:11;;;;;;;;;1.20;1.20;;;;;15.98;100.00;99274.47;5055228;28;45371;-89
2022/10/22 04:43:36;;;;;;;;;1.80;1.80;;;;;15.96;100.00;99271.91;5051723;28;45424;-89
2022/10/22 04:46:01;;;;;;;;;3.00;1.50;;;;;15.95;100.00;99270.19;5046482;28;47914;-89
2022/10/22 04:48:27;;;;;;;;;1.50;1.50;;;;;15.92;100.00;99275.69;5043847;28;45491;-89
2022/10/22 04:50:52;;;;;;;;;1.75;1.75;;;;;15.91;100.00;99283.78;5054554;28;45266;-89
2022/10/22 04:53:18;;;;;;;;;2.75;1.75;;;;;15.89;100.00;99291.84;5054538;28;45545;-90
2022/10/22 04:55:43;;;;;;;;;1.75;1.75;;;;;15.88;100.00;99292.78;5056988;28;45576;-89
2022/10/22 04:58:08;;;;;;;;;3.00;3.00;;;;;15.85;100.00;99281.47;5059003;28;45489;-89
2022/10/22 05:00:34;;;;;;;;;4.75;3.75;;;;;15.83;100.00;99278.03;5059797;28;45486;-89
2022/10/22 05:02:59;;;;;;;;;2.00;2.00;;;;;15.80;100.00;99281.72;5055386;28;45640;-89
2022/10/22 05:05:24;;;;;;;;;2.25;1.75;;;;;15.78;100.00;99288.94;5054213;28;46142;-89
2022/10/22 05:07:51;;;;;;;;;3.00;3.00;;;;;15.76;100.00;99285.50;5053920;28;45566;-88
2022/10/22 05:10:16;;;;;;;;;2.00;2.00;;;;;15.76;100.00;99297.94;5054398;28;45420;-89
2022/10/22 05:12:41;;;;;;;;;3.50;3.50;;;;;15.74;100.00;99306.03;5054604;28;45417;-89
2022/10/22 05:15:07;;;;;;;;;2.75;2.75;;;;;15.73;100.00;99306.13;5055329;28;45443;-89
2022/10/22 05:17:36;;;;;;;;;4.60;4.60;;;;;15.72;100.00;99310.59;5054305;28;45273;-89
2022/10/22 05:20:04;;;;;;;;;4.80;4.80;;;;;15.69;100.00;99313.41;5054260;28;45479;-89
2022/10/22 05:22:29;;;;;;;;;7.60;4.20;;;;;15.68;100.00;99314.34;5045106;28;45488;-89
2022/10/22 05:24:54;;;;;;;;;4.50;4.50;;;;;15.67;100.00;99309.97;5053145;28;46020;-88
2022/10/22 05:27:20;;;;;;;;;3.75;3.00;;;;;15.65;100.00;99320.69;5044973;28;45511;-90
2022/10/22 05:29:45;;;;;;;;;3.75;3.25;;;;;15.65;100.00;99323.34;5053457;28;45237;-90
2022/10/22 05:32:10;;;;;;;;;3.50;3.50;;;;;15.64;100.00;99320.78;5057385;28;45484;-89
2022/10/22 05:34:36;;;;;;;;;3.00;3.00;;;;;15.62;100.00;99325.31;5056984;28;45692;-90
2022/10/22 05:37:02;;;;;;;;;2.75;2.75;;;;;15.60;100.00;99311.25;5060141;28;45412;-90
2022/10/22 05:39:27;;;;;;;;;3.20;3.20;;;;;15.56;100.00;99313.25;5059713;28;45174;-90
2022/10/22 05:41:53;;;;;;;;;1.50;1.50;;;;;15.53;100.00;99324.03;5051762;28;45374;-89
2022/10/22 05:44:18;;;;;;;;;3.25;2.50;;;;;15.52;100.00;99324.13;5057872;28;46304;-90
2022/10/22 05:46:44;;;;;;;;;1.25;1.25;;;;;15.49;100.00;99325.16;5051767;28;45684;-89
2022/10/22 05:49:14;;;;;;;;;2.50;2.50;;;;;15.49;100.00;99326.94;5057345;28;45446;-89
2022/10/22 05:51:39;;;;;;;;;1.20;1.20;;;;;15.47;100.00;99329.69;5056638;28;45519;-90
2022/10/22 05:54:07;;;;;;;;;5.25;3.50;;;;;15.47;100.00;99331.47;5057146;28;45547;-89
2022/10/22 05:56:34;;;;;;;;;3.20;3.20;;;;;15.47;100.00;99337.66;5055328;28;45594;-89
2022/10/22 05:59:00;;;;;;;;;2.80;2.80;;;;;15.48;100.00;99347.34;5061563;28;45437;-89
2022/10/22 06:01:31;;;;;;;;;3.20;2.60;;;;;15.49;100.00;99342.88;5057443;28;45451;-89
2022/10/22 06:03:59;;;;;;;;;4.80;3.60;;;;;15.47;100.00;99352.75;5080224;27;47400;-89
2022/10/22 06:06:56;;;;;;;;;5.20;3.40;;;;;15.46;100.00;99348.38;5056906;28;45388;-88
2022/10/22 06:09:29;;;;;;;;;3.60;3.60;;;;;15.47;100.00;99358.91;5039435;28;45504;-89
2022/10/22 06:11:56;;;;;;;;;4.40;4.40;;;;;15.47;100.00;99361.56;5057372;28;45365;-89
2022/10/22 06:14:22;;;;;;;;;3.60;3.60;;;;;15.51;100.00;99360.47;5057221;28;45739;-88
2022/10/22 06:16:49;;;;;;;;;3.00;2.20;;;;;15.53;100.00;99363.03;5057607;28;45426;-89
2022/10/22 06:19:16;;;;;;;;;5.00;4.20;;;;;15.54;100.00;99365.59;5061484;28;45396;-89
2022/10/22 06:21:42;;;;;;;;;3.20;2.60;;;;;15.56;100.00;99363.75;5057868;28;45346;-89
2022/10/22 06:24:09;;;;;;;;;5.00;4.50;;;;;15.62;100.00;99359.88;5053434;28;46037;-70
2022/10/22 06:26:34;;;;;;;;;5.00;5.00;;;;;15.66;100.00;99362.28;5049815;28;45476;-70
2022/10/22 06:29:00;;;;;;;;;5.25;5.25;;;;;15.70;100.00;99366.47;5050750;28;45491;-71
2022/10/22 06:31:27;;;;;;;;;5.00;4.25;;;;;15.74;100.00;99363.66;5053496;28;45527;-70
2022/10/22 06:33:53;;;;;;;;;4.80;4.00;;;;;15.73;100.00;99368.13;5045122;28;45631;-70
2022/10/22 06:36:21;;;;;;;;;5.20;5.20;;;;;15.75;100.00;99376.00;5048878;28;45492;-71
2022/10/22 06:38:50;;;;;;;;;7.00;6.60;;;;;15.73;100.00;99375.22;5051324;28;45419;-70
2022/10/22 06:41:16;;;;;;;;;3.75;3.75;;;;;15.74;100.00;99372.50;5052642;28;45496;-71
2022/10/22 06:43:45;;;;;;;;;6.00;5.75;;;;;15.76;100.00;99383.00;5050807;28;48105;-70
2022/10/22 06:46:12;;;;;;;;;7.20;5.20;;;;;15.77;100.00;99395.34;5052536;28;45369;-71
2022/10/22 06:48:39;;;;;;;;;6.60;5.40;;;;;15.78;100.00;99399.72;5050669;28;45482;-71
2022/10/22 06:51:07;;;;;;;;;5.50;4.50;;;;;15.79;100.00;99396.13;5052399;28;45585;-70
2022/10/22 06:53:33;;;;;;;;;6.00;6.00;;;;;15.79;100.00;99399.66;5044118;28;46702;-71
2022/10/22 06:56:04;;;;;;;;;8.00;7.60;;;;;15.79;100.00;99396.13;5049866;28;45612;-70
2022/10/22 06:58:29;;;;;;;;;8.00;7.60;;;;;15.80;100.00;99401.34;5049706;28;45372;-70
2022/10/22 07:01:07;;;;;;;;;14.75;12.00;;;;;15.81;100.00;99403.06;5055652;28;45567;-70
2022/10/22 07:03:33;;;;;;;;;8.60;8.20;;;;;15.81;100.00;99405.75;5049492;28;46465;-70
2022/10/22 07:06:04;;;;;;;;;6.00;5.00;;;;;15.82;100.00;99403.94;5049820;28;45579;-70
2022/10/22 07:08:29;;;;;;;;;5.20;5.20;;;;;15.80;100.00;99403.16;5050121;28;45440;-70
2022/10/22 07:10:55;;;;;;;;;8.00;7.50;;;;;15.79;100.00;99399.66;5051363;28;45269;-70
2022/10/22 07:13:21;;;;;;;;;6.20;6.20;;;;;15.77;100.00;99401.53;5049051;28;46209;-70
2022/10/22 07:15:53;;;;;;;;;7.25;5.75;;;;;15.78;100.00;99405.03;5051467;28;45471;-69
2022/10/22 07:18:19;;;;;;;;;6.60;5.60;;;;;15.84;100.00;99405.56;5049068;28;45309;-67
2022/10/22 07:20:46;;;;;;;;;4.75;4.25;;;;;15.91;100.00;99409.59;5047635;28;45428;-72
2022/10/22 07:23:12;;;;;;;;;4.40;4.40;;;;;15.92;100.00;99405.16;5051368;28;45647;-71
2022/10/22 07:25:37;;;;;;;;;6.50;4.75;;;;;15.91;100.00;99412.25;5049561;28;45514;-71
2022/10/22 07:28:02;;;;;;;;;5.25;5.25;;;;;15.89;100.00;99422.13;5049571;28;45511;-71
2022/10/22 07:30:28;;;;;;;;;8.25;7.00;;;;;15.85;100.00;99423.22;5054077;28;45419;-71
2022/10/22 07:32:53;;;;;;;;;4.00;4.00;;;;;15.85;100.00;99425.03;5052357;28;45543;-71
2022/10/22 07:35:18;;;;;;;;;5.25;3.50;;;;;15.85;100.00;99425.91;5046543;28;45504;-70
2022/10/22 07:37:44;;;;;;;;;4.00;3.00;;;;;15.86;100.00;99430.28;5051201;28;45333;-70
2022/10/22 07:40:09;;;;;;;;;8.75;6.00;;;;;15.89;100.00;99427.44;5054270;28;45488;-71
2022/10/22 07:42:35;;;;;;;;;7.75;5.25;;;;;15.91;100.00;99435.34;5050644;28;45482;-70
2022/10/22 07:45:00;;;;;;;;;3.50;3.50;;;;;15.93;100.00;99436.94;5055492;28;45361;-71
2022/10/22 07:47:26;;;;;;;;;4.00;3.75;;;;;15.94;100.00;99437.78;5051709;28;45397;-71
2022/10/22 07:49:51;;;;;;;;;5.25;4.75;;;;;15.96;100.00;99441.22;5054217;28;45233;-72
2022/10/22 07:52:17;;;;;;;;;6.00;4.00;;;;;16.00;100.00;99450.75;5052856;28;46058;-70
2022/10/22 07:54:42;;;;;;;;;10.25;10.00;;;;;16.01;100.00;99453.31;5053235;28;45909;-70
2022/10/22 07:57:08;;;;;;;;;5.00;4.75;;;;;16.00;100.00;99443.63;5054681;28;45882;-70
2022/10/22 07:59:33;;;;;;;;;4.75;4.75;;;;;16.00;100.00;99448.94;5052202;28;45211;-70
2022/10/22 08:01:58;;;;;;;;;3.75;3.75;;;;;16.04;100.00;99444.31;5054049;28;45723;-70
2022/10/22 08:04:24;;;;;;;;;3.50;3.50;;;;;16.08;100.00;99453.00;5046183;28;45383;-71
2022/10/22 08:06:49;;;;;;;;;10.25;6.75;;;;;16.10;100.00;99443.94;5054187;28;45636;-70
2022/10/22 08:09:15;;;;;;;;;9.25;7.50;;;;;16.14;100.00;99445.50;5046707;28;45371;-70
2022/10/22 08:11:40;;;;;;;;;8.25;5.25;;;;;16.21;100.00;99456.66;5053946;28;45466;-70
2022/10/22 08:14:05;;;;;;;;;9.00;6.75;;;;;16.25;100.00;99455.53;5046303;28;45461;-71
2022/10/22 08:16:31;;;;;;;;;10.50;9.50;;;;;16.33;100.00;99462.13;5053949;28;45857;-70
2022/10/22 08:18:56;;;;;;;;;9.50;9.25;;;;;16.41;100.00;99459.03;5053887;28;45449;-69
2022/10/22 08:21:21;;;;;;;;;9.25;7.25;;;;;16.47;100.00;99469.28;5053977;28;46033;-71
2022/10/22 08:23:47;;;;;;;;;7.00;7.00;;;;;16.53;100.00;99468.06;5050773;28;45342;-69
2022/10/22 08:26:12;;;;;;;;;9.25;8.50;;;;;16.57;100.00;99458.97;5054473;28;45583;-70
2022/10/22 08:28:38;;;;;;;;;6.25;6.25;;;;;16.60;99.84;99464.94;5050973;28;45720;-70
2022/10/22 08:31:06;;;;;;;;;8.25;5.00;;;;;16.61;99.82;99461.34;5053732;28;45364;-69
2022/10/22 08:33:32;;;;;;;;;7.60;6.00;;;;;16.61;99.95;99461.34;5053023;28;45368;-71
2022/10/22 08:35:57;;;;;;;;;4.50;4.50;;;;;16.62;100.00;99463.06;5053714;28;45395;-70
2022/10/22 08:38:22;;;;;;;;;4.00;4.00;;;;;16.62;99.43;99464.84;5052517;28;45426;-70
2022/10/22 08:40:52;;;;;;;;;4.75;4.75;;;;;16.61;99.48;99468.47;5085387;27;47020;-70
2022/10/22 08:43:24;;;;;;;;;6.60;5.60;;;;;16.60;99.27;99464.94;5053734;28;45386;-70
2022/10/22 08:46:17;;;;;;;;;6.20;5.40;;;;;16.60;98.79;99472.94;5053879;28;45361;-70
2022/10/22 08:48:50;;;;;;;;;5.40;4.60;;;;;16.58;98.89;99471.34;5051367;28;45589;-70
2022/10/22 08:51:19;;;;;;;;;4.20;4.00;;;;;16.61;98.78;99473.78;5052206;28;45445;-71
2022/10/22 08:53:51;;;;;;;;;4.60;4.00;;;;;16.63;98.72;99467.47;5052428;28;45407;-71
2022/10/22 08:56:16;;;;;;;;;5.00;5.00;;;;;16.65;99.07;99470.91;5047877;28;45441;-70
2022/10/22 08:58:46;;;;;;;;;6.00;5.25;;;;;16.67;98.97;99474.34;5052631;28;45152;-70
2022/10/22 09:01:41;;;;;;;;;7.20;3.00;;;;;16.70;98.83;99460.00;5053727;28;45586;-70
2022/10/22 09:04:36;;;;;;;;;5.60;4.60;;;;;16.76;98.69;99459.59;5052884;27;45508;-70
2022/10/22 09:07:01;;;;;;;;;4.00;4.00;;;;;16.79;98.27;99459.41;5050695;28;45426;-70
2022/10/22 09:09:35;;;;;;;;;4.00;4.00;;;;;16.83;98.49;99458.28;5052118;28;45343;-71
2022/10/22 09:12:03;;;;;;;;;5.00;5.00;;;;;16.87;98.14;99454.50;5056619;28;46783;-70
2022/10/22 09:14:29;;;;;;;;;7.00;7.00;;;;;16.91;98.26;99449.84;5052853;28;45455;-70
2022/10/22 09:17:34;;;;;;;;;5.50;5.00;;;;;16.97;98.21;99452.13;5057123;28;45529;-70
2022/10/22 09:20:22;;;;;;;;;6.20;5.00;;;;;17.01;97.95;99459.00;5055101;28;45442;-70
2022/10/22 09:22:54;;;;;;;;;6.60;5.40;;;;;17.05;98.44;99461.38;5054722;28;45718;-70
2022/10/22 09:25:26;;;;;;;;;6.20;6.20;;;;;17.10;98.08;99459.28;5055328;28;45421;-70
2022/10/22 09:27:57;;;;;;;;;4.00;4.00;;;;;17.15;97.46;99459.00;5053112;28;45301;-70
2022/10/22 09:30:25;;;;;;;;;8.75;5.75;;;;;17.19;97.58;99463.19;5055339;28;46267;-70
2022/10/22 09:33:09;;;;;;;;;10.00;9.60;;;;;17.26;96.45;99463.69;5048595;28;46788;-70
2022/10/22 09:35:45;;;;;;;;;10.60;7.00;;;;;17.31;96.00;99465.09;5046242;28;45269;-70
2022/10/22 09:38:14;;;;;;;;;6.00;6.00;;;;;17.37;94.65;99448.72;5052307;28;45492;-70
2022/10/22 09:40:47;;;;;;;;;4.20;4.20;;;;;17.41;94.74;99447.59;5056124;28;45397;-70
2022/10/22 09:43:13;;;;;;;;;4.60;4.00;;;;;17.45;93.46;99446.41;5053909;28;45489;-70
2022/10/22 09:45:41;;;;;;;;;1.60;1.60;;;;;17.49;92.65;99447.09;5056141;28;45309;-69
2022/10/22 09:48:29;;;;;;;;;1.80;1.80;;;;;17.53;92.21;99440.63;5052989;28;45483;-69
2022/10/22 09:51:01;;;;;;;;;1.80;1.80;;;;;17.58;91.93;99433.19;5053189;28;45333;-69
2022/10/22 09:53:36;;;;;;;;;2.00;2.00;;;;;17.64;91.46;99438.16;5054255;28;45500;-70
2022/10/22 09:56:09;;;;;;;;;1.00;1.00;;;;;17.68;90.82;99436.16;5056092;28;45418;-69
2022/10/22 09:58:43;;;;;;;;;3.40;2.40;;;;;17.72;89.83;99435.00;5053591;28;45763;-70
2022/10/22 10:01:23;;;;;;;;;1.00;1.00;;;;;17.77;88.38;99432.88;5055852;28;45743;-71
2022/10/22 10:03:49;;;;;;;;;1.00;1.00;;;;;17.82;89.21;99425.44;5054414;28;45436;-70
2022/10/22 10:06:22;;;;;;;;;1.25;1.25;;;;;17.87;88.51;99423.34;5054013;28;45614;-70
2022/10/22 10:08:48;;;;;;;;;1.00;1.00;;;;;17.93;88.13;99419.44;5051726;28;45376;-69
2022/10/22 10:11:25;;;;;;;;;1.00;1.00;;;;;17.97;87.77;99426.25;5054462;28;45501;-70
2022/10/22 10:14:15;;;;;;;;;3.00;3.00;;;;;18.04;87.13;99432.91;5052337;28;46137;-71
2022/10/22 10:17:06;;;;;;;;;2.00;2.00;;;;;18.10;86.20;99436.00;5049577;28;45354;-71
2022/10/22 10:19:53;;;;;;;;;3.00;2.00;;;;;18.17;85.08;99431.13;5051315;28;45514;-72
2022/10/22 10:22:49;;;;;;;;;1.20;1.20;;;;;18.23;84.98;99432.56;5053135;28;45404;-71
2022/10/22 10:25:37;;;;;;;;;0.00;0.00;;;;;18.30;85.20;99426.69;5055784;28;47184;-72
2022/10/22 10:28:27;;;;;;;;;4.00;3.00;;;;;18.35;84.31;99429.91;5047838;28;46193;-72
2022/10/22 10:31:26;;;;;;;;;2.00;2.00;;;;;18.41;83.91;99432.19;5045059;28;45329;-72
2022/10/22 10:34:36;;;;;;;;;1.80;1.80;;;;;18.47;83.77;99418.41;5046031;28;45562;-71
2022/10/22 10:37:14;;;;;;;;;7.00;5.00;;;;;18.54;84.27;99421.53;5007483;28;47198;-71
2022/10/22 10:39:45;;;;;;;;;2.00;1.80;;;;;18.61;83.56;99421.97;5011944;28;45532;-72
2022/10/22 10:42:23;;;;;;;;;4.00;2.20;;;;;18.65;82.39;99416.31;5042249;28;45666;-70
2022/10/22 10:45:01;;;;;;;;;3.00;2.00;;;;;18.70;82.02;99416.88;5052640;28;45542;-71
2022/10/22 10:47:42;;;;;;;;;2.00;1.00;;;;;18.76;82.32;99404.94;5054638;28;45498;-70
2022/10/22 10:50:16;;;;;;;;;2.40;2.40;;;;;18.82;82.22;99401.81;5043627;28;45398;-70
2022/10/22 10:52:55;;;;;;;;;3.40;2.40;;;;;18.89;82.11;99407.59;5069170;28;45488;-70
2022/10/22 10:55:34;;;;;;;;;4.60;2.40;;;;;18.95;80.86;99404.47;5066708;28;45504;-70
2022/10/22 10:58:57;;;;;;;;;2.00;2.00;;;;;19.00;80.32;99389.84;5048582;28;45432;-70
2022/10/22 11:01:28;;;;;;;;;1.00;1.00;;;;;19.07;78.93;99391.13;5020643;28;45494;-70
2022/10/22 11:03:53;;;;;;;;;2.40;2.00;;;;;19.11;78.57;99387.25;5031319;28;45592;-71
2022/10/22 11:06:20;;;;;;;;;1.75;1.00;;;;;19.18;78.42;99385.00;5043509;28;45460;-71
2022/10/22 11:08:54;;;;;;;;;2.80;2.00;;;;;19.25;78.16;99385.44;5051116;28;46274;-71
2022/10/22 11:11:34;;;;;;;;;1.60;1.00;;;;;19.31;78.40;99376.97;5085600;27;45496;-70
2022/10/22 11:14:12;;;;;;;;;1.20;1.20;;;;;19.40;78.18;99381.66;5050807;28;45598;-64
2022/10/22 11:17:04;;;;;;;;;1.00;1.00;;;;;19.48;77.45;99381.94;5047620;28;45508;-75
2022/10/22 11:19:44;;;;;;;;;1.80;1.80;;;;;19.54;78.12;99381.56;5042950;28;45520;-75
2022/10/22 11:22:30;;;;;;;;;3.00;2.20;;;;;19.60;76.91;99367.75;5055676;28;45482;-74
2022/10/22 11:25:14;;;;;;;;;5.00;5.00;;;;;19.67;76.63;99365.47;5049594;28;45542;-74
2022/10/22 11:27:53;;;;;;;;;2.60;1.80;;;;;19.71;75.90;99354.44;5050430;28;45559;-74
2022/10/22 11:30:21;;;;;;;;;2.20;2.20;;;;;19.76;76.68;99346.91;5053292;28;45464;-68
2022/10/22 11:32:56;;;;;;;;;4.20;1.40;;;;;19.81;76.62;99349.22;5081794;27;45376;-73
2022/10/22 11:35:34;;;;;;;;;1.00;0.80;;;;;19.86;76.93;99345.25;5043594;28;45440;-73
2022/10/22 11:38:03;;;;;;;;;2.40;2.00;;;;;19.91;76.56;99338.72;5049090;28;45416;-73
2022/10/22 11:40:28;;;;;;;;;2.00;1.00;;;;;19.94;77.20;99333.97;5047719;28;46443;-73
2022/10/22 11:43:34;;;;;;;;;4.00;2.25;;;;;19.98;75.90;99329.25;5049523;28;45434;-74